sensor_id;sensor_type;location;lat;lon;timestamp;P1;durP1;ratioP1;P2;durP2;ratioP2
32838;SDS011;19182;41.820;12.808;2024-03-29T00:01:33;43.65;;;9.05;;
32838;SDS011;19182;41.820;12.808;2024-03-29T00:03:59;56.47;;;10.77;;
32838;SDS011;19182;41.820;12.808;2024-03-29T00:06:25;53.50;;;10.52;;
32838;SDS011;19182;41.820;12.808;2024-03-29T00:08:51;55.22;;;10.20;;
32838;SDS011;19182;41.820;12.808;2024-03-29T00:11:17;49.42;;;9.10;;
32838;SDS011;19182;41.820;12.808;2024-03-29T00:13:43;44.92;;;9.55;;
32838;SDS011;19182;41.820;12.808;2024-03-29T00:16:10;52.33;;;9.50;;
32838;SDS011;19182;41.820;12.808;2024-03-29T00:18:36;45.45;;;9.88;;
32838;SDS011;19182;41.820;12.808;2024-03-29T00:21:04;38.05;;;9.32;;
32838;SDS011;19182;41.820;12.808;2024-03-29T00:23:30;48.45;;;9.52;;
32838;SDS011;19182;41.820;12.808;2024-03-29T00:25:55;44.08;;;10.82;;
32838;SDS011;19182;41.820;12.808;2024-03-29T00:28:23;52.08;;;11.63;;
32838;SDS011;19182;41.820;12.808;2024-03-29T00:30:49;57.20;;;12.27;;
32838;SDS011;19182;41.820;12.808;2024-03-29T00:33:16;58.33;;;10.70;;
32838;SDS011;19182;41.820;12.808;2024-03-29T00:35:42;57.75;;;12.65;;
32838;SDS011;19182;41.820;12.808;2024-03-29T00:38:07;65.05;;;11.63;;
32838;SDS011;19182;41.820;12.808;2024-03-29T00:40:37;59.42;;;13.65;;
32838;SDS011;19182;41.820;12.808;2024-03-29T00:43:05;45.13;;;10.63;;
32838;SDS011;19182;41.820;12.808;2024-03-29T00:45:31;65.43;;;12.88;;
32838;SDS011;19182;41.820;12.808;2024-03-29T00:47:57;60.30;;;12.32;;
32838;SDS011;19182;41.820;12.808;2024-03-29T00:50:23;66.05;;;12.77;;
32838;SDS011;19182;41.820;12.808;2024-03-29T00:52:50;68.82;;;12.35;;
32838;SDS011;19182;41.820;12.808;2024-03-29T00:55:17;42.65;;;10.65;;
32838;SDS011;19182;41.820;12.808;2024-03-29T00:57:43;59.63;;;11.13;;
32838;SDS011;19182;41.820;12.808;2024-03-29T01:00:09;62.35;;;13.95;;
32838;SDS011;19182;41.820;12.808;2024-03-29T01:02:35;59.42;;;13.55;;
32838;SDS011;19182;41.820;12.808;2024-03-29T01:05:02;61.90;;;15.18;;
32838;SDS011;19182;41.820;12.808;2024-03-29T01:07:28;57.30;;;13.85;;
32838;SDS011;19182;41.820;12.808;2024-03-29T01:09:55;58.60;;;14.40;;
32838;SDS011;19182;41.820;12.808;2024-03-29T01:12:22;65.28;;;15.25;;
32838;SDS011;19182;41.820;12.808;2024-03-29T01:14:48;74.03;;;15.60;;
32838;SDS011;19182;41.820;12.808;2024-03-29T01:17:14;54.78;;;16.10;;
32838;SDS011;19182;41.820;12.808;2024-03-29T01:19:39;70.22;;;17.58;;
32838;SDS011;19182;41.820;12.808;2024-03-29T01:22:08;63.20;;;17.02;;
32838;SDS011;19182;41.820;12.808;2024-03-29T01:24:35;54.25;;;15.52;;
32838;SDS011;19182;41.820;12.808;2024-03-29T01:27:02;56.45;;;14.73;;
32838;SDS011;19182;41.820;12.808;2024-03-29T01:29:31;67.43;;;16.45;;
32838;SDS011;19182;41.820;12.808;2024-03-29T01:31:59;56.28;;;13.60;;
32838;SDS011;19182;41.820;12.808;2024-03-29T01:34:25;61.35;;;14.95;;
32838;SDS011;19182;41.820;12.808;2024-03-29T01:36:51;69.20;;;13.05;;
32838;SDS011;19182;41.820;12.808;2024-03-29T01:39:17;57.63;;;12.23;;
32838;SDS011;19182;41.820;12.808;2024-03-29T01:41:47;60.67;;;12.90;;
32838;SDS011;19182;41.820;12.808;2024-03-29T01:44:14;64.40;;;14.40;;
32838;SDS011;19182;41.820;12.808;2024-03-29T01:46:43;70.88;;;14.13;;
32838;SDS011;19182;41.820;12.808;2024-03-29T01:49:11;50.80;;;13.00;;
32838;SDS011;19182;41.820;12.808;2024-03-29T01:51:38;62.15;;;12.15;;
32838;SDS011;19182;41.820;12.808;2024-03-29T01:54:06;59.97;;;13.30;;
32838;SDS011;19182;41.820;12.808;2024-03-29T01:56:36;68.10;;;11.90;;
32838;SDS011;19182;41.820;12.808;2024-03-29T01:59:04;50.88;;;10.57;;
32838;SDS011;19182;41.820;12.808;2024-03-29T02:01:36;75.57;;;12.13;;
32838;SDS011;19182;41.820;12.808;2024-03-29T02:04:03;55.08;;;12.20;;
32838;SDS011;19182;41.820;12.808;2024-03-29T02:06:30;72.47;;;12.48;;
32838;SDS011;19182;41.820;12.808;2024-03-29T02:08:57;77.55;;;14.63;;
32838;SDS011;19182;41.820;12.808;2024-03-29T02:11:23;66.07;;;11.57;;
32838;SDS011;19182;41.820;12.808;2024-03-29T02:13:49;77.40;;;12.80;;
32838;SDS011;19182;41.820;12.808;2024-03-29T02:16:16;61.88;;;11.38;;
32838;SDS011;19182;41.820;12.808;2024-03-29T02:18:42;82.25;;;15.20;;
32838;SDS011;19182;41.820;12.808;2024-03-29T02:21:08;62.60;;;11.55;;
32838;SDS011;19182;41.820;12.808;2024-03-29T02:23:36;53.90;;;11.25;;
32838;SDS011;19182;41.820;12.808;2024-03-29T02:26:05;52.45;;;10.15;;
32838;SDS011;19182;41.820;12.808;2024-03-29T02:28:31;87.22;;;14.73;;
32838;SDS011;19182;41.820;12.808;2024-03-29T02:30:58;68.15;;;12.55;;
32838;SDS011;19182;41.820;12.808;2024-03-29T02:33:25;70.78;;;13.73;;
32838;SDS011;19182;41.820;12.808;2024-03-29T02:35:53;71.38;;;12.93;;
32838;SDS011;19182;41.820;12.808;2024-03-29T02:38:21;73.32;;;12.27;;
32838;SDS011;19182;41.820;12.808;2024-03-29T02:40:47;74.68;;;13.10;;
32838;SDS011;19182;41.820;12.808;2024-03-29T02:43:13;81.80;;;12.68;;
32838;SDS011;19182;41.820;12.808;2024-03-29T02:45:40;52.22;;;10.90;;
32838;SDS011;19182;41.820;12.808;2024-03-29T02:48:06;97.32;;;13.52;;
32838;SDS011;19182;41.820;12.808;2024-03-29T02:50:32;77.47;;;12.85;;
32838;SDS011;19182;41.820;12.808;2024-03-29T02:52:58;59.85;;;11.70;;
32838;SDS011;19182;41.820;12.808;2024-03-29T02:55:24;73.90;;;13.32;;
32838;SDS011;19182;41.820;12.808;2024-03-29T02:57:51;73.03;;;13.38;;
32838;SDS011;19182;41.820;12.808;2024-03-29T03:00:16;57.90;;;10.43;;
32838;SDS011;19182;41.820;12.808;2024-03-29T03:02:43;64.50;;;12.05;;
32838;SDS011;19182;41.820;12.808;2024-03-29T03:05:10;69.72;;;12.05;;
32838;SDS011;19182;41.820;12.808;2024-03-29T03:07:37;72.90;;;11.77;;
32838;SDS011;19182;41.820;12.808;2024-03-29T03:10:22;59.65;;;10.93;;
32838;SDS011;19182;41.820;12.808;2024-03-29T03:13:08;81.90;;;12.15;;
32838;SDS011;19182;41.820;12.808;2024-03-29T03:15:35;67.30;;;13.63;;
32838;SDS011;19182;41.820;12.808;2024-03-29T03:18:02;75.15;;;11.63;;
32838;SDS011;19182;41.820;12.808;2024-03-29T03:20:29;75.55;;;12.13;;
32838;SDS011;19182;41.820;12.808;2024-03-29T03:22:57;90.38;;;13.80;;
32838;SDS011;19182;41.820;12.808;2024-03-29T03:25:26;79.20;;;13.48;;
32838;SDS011;19182;41.820;12.808;2024-03-29T03:27:53;80.80;;;13.05;;
32838;SDS011;19182;41.820;12.808;2024-03-29T03:30:20;71.90;;;13.68;;
32838;SDS011;19182;41.820;12.808;2024-03-29T03:32:47;90.78;;;13.85;;
32838;SDS011;19182;41.820;12.808;2024-03-29T03:35:14;66.30;;;13.20;;
32838;SDS011;19182;41.820;12.808;2024-03-29T03:37:40;79.97;;;12.50;;
32838;SDS011;19182;41.820;12.808;2024-03-29T03:40:06;78.25;;;13.80;;
32838;SDS011;19182;41.820;12.808;2024-03-29T03:42:32;73.97;;;11.93;;
32838;SDS011;19182;41.820;12.808;2024-03-29T03:44:58;64.85;;;10.75;;
32838;SDS011;19182;41.820;12.808;2024-03-29T03:47:26;70.85;;;11.05;;
32838;SDS011;19182;41.820;12.808;2024-03-29T03:49:52;74.45;;;12.55;;
32838;SDS011;19182;41.820;12.808;2024-03-29T03:52:19;66.60;;;11.43;;
32838;SDS011;19182;41.820;12.808;2024-03-29T03:54:45;75.20;;;14.23;;
32838;SDS011;19182;41.820;12.808;2024-03-29T03:57:11;63.67;;;11.48;;
32838;SDS011;19182;41.820;12.808;2024-03-29T03:59:38;65.65;;;11.52;;
32838;SDS011;19182;41.820;12.808;2024-03-29T04:02:04;88.40;;;12.85;;
32838;SDS011;19182;41.820;12.808;2024-03-29T04:04:29;71.28;;;10.32;;
32838;SDS011;19182;41.820;12.808;2024-03-29T04:06:57;66.65;;;12.00;;
32838;SDS011;19182;41.820;12.808;2024-03-29T04:09:22;59.50;;;10.35;;
32838;SDS011;19182;41.820;12.808;2024-03-29T04:11:49;83.88;;;11.95;;
32838;SDS011;19182;41.820;12.808;2024-03-29T04:14:16;78.28;;;10.43;;
32838;SDS011;19182;41.820;12.808;2024-03-29T04:16:44;77.65;;;13.02;;
32838;SDS011;19182;41.820;12.808;2024-03-29T04:19:10;66.13;;;11.93;;
32838;SDS011;19182;41.820;12.808;2024-03-29T04:21:36;62.88;;;11.55;;
32838;SDS011;19182;41.820;12.808;2024-03-29T04:24:02;77.00;;;9.80;;
32838;SDS011;19182;41.820;12.808;2024-03-29T04:26:28;71.95;;;10.38;;
32838;SDS011;19182;41.820;12.808;2024-03-29T04:28:54;71.68;;;10.95;;
32838;SDS011;19182;41.820;12.808;2024-03-29T04:31:22;70.55;;;10.25;;
32838;SDS011;19182;41.820;12.808;2024-03-29T04:33:49;59.83;;;9.65;;
32838;SDS011;19182;41.820;12.808;2024-03-29T04:36:16;59.50;;;8.82;;
32838;SDS011;19182;41.820;12.808;2024-03-29T04:38:43;82.32;;;11.95;;
32838;SDS011;19182;41.820;12.808;2024-03-29T04:41:11;59.78;;;10.60;;
32838;SDS011;19182;41.820;12.808;2024-03-29T04:43:36;58.95;;;9.80;;
32838;SDS011;19182;41.820;12.808;2024-03-29T04:46:02;56.15;;;9.23;;
32838;SDS011;19182;41.820;12.808;2024-03-29T04:48:35;63.58;;;8.18;;
32838;SDS011;19182;41.820;12.808;2024-03-29T04:51:01;75.53;;;11.05;;
32838;SDS011;19182;41.820;12.808;2024-03-29T04:53:29;69.68;;;9.65;;
32838;SDS011;19182;41.820;12.808;2024-03-29T04:55:58;67.88;;;11.80;;
32838;SDS011;19182;41.820;12.808;2024-03-29T04:58:24;49.45;;;8.50;;
32838;SDS011;19182;41.820;12.808;2024-03-29T05:00:51;59.53;;;9.60;;
32838;SDS011;19182;41.820;12.808;2024-03-29T05:03:18;74.20;;;10.55;;
32838;SDS011;19182;41.820;12.808;2024-03-29T05:05:44;70.82;;;9.38;;
32838;SDS011;19182;41.820;12.808;2024-03-29T05:08:11;58.30;;;9.15;;
32838;SDS011;19182;41.820;12.808;2024-03-29T05:10:37;51.20;;;9.25;;
32838;SDS011;19182;41.820;12.808;2024-03-29T05:13:04;58.45;;;9.30;;
32838;SDS011;19182;41.820;12.808;2024-03-29T05:15:31;61.42;;;8.18;;
32838;SDS011;19182;41.820;12.808;2024-03-29T05:17:57;63.88;;;8.70;;
32838;SDS011;19182;41.820;12.808;2024-03-29T05:20:24;63.05;;;8.80;;
32838;SDS011;19182;41.820;12.808;2024-03-29T05:22:51;67.60;;;11.93;;
32838;SDS011;19182;41.820;12.808;2024-03-29T05:25:18;83.05;;;10.10;;
32838;SDS011;19182;41.820;12.808;2024-03-29T05:27:44;64.63;;;9.55;;
32838;SDS011;19182;41.820;12.808;2024-03-29T05:30:11;62.88;;;8.65;;
32838;SDS011;19182;41.820;12.808;2024-03-29T05:32:39;63.72;;;8.02;;
32838;SDS011;19182;41.820;12.808;2024-03-29T05:35:05;59.90;;;8.73;;
32838;SDS011;19182;41.820;12.808;2024-03-29T05:37:31;66.22;;;10.05;;
32838;SDS011;19182;41.820;12.808;2024-03-29T05:39:57;74.70;;;10.30;;
32838;SDS011;19182;41.820;12.808;2024-03-29T05:42:30;52.50;;;8.63;;
32838;SDS011;19182;41.820;12.808;2024-03-29T05:44:57;59.90;;;9.13;;
32838;SDS011;19182;41.820;12.808;2024-03-29T05:47:24;66.32;;;9.27;;
32838;SDS011;19182;41.820;12.808;2024-03-29T05:49:53;66.25;;;9.27;;
32838;SDS011;19182;41.820;12.808;2024-03-29T05:52:19;66.18;;;7.80;;
32838;SDS011;19182;41.820;12.808;2024-03-29T05:54:46;53.67;;;8.18;;
32838;SDS011;19182;41.820;12.808;2024-03-29T05:57:12;74.38;;;9.35;;
32838;SDS011;19182;41.820;12.808;2024-03-29T05:59:39;63.67;;;8.38;;
32838;SDS011;19182;41.820;12.808;2024-03-29T06:02:05;70.50;;;12.43;;
32838;SDS011;19182;41.820;12.808;2024-03-29T06:04:32;70.82;;;8.48;;
32838;SDS011;19182;41.820;12.808;2024-03-29T06:07:04;64.40;;;8.55;;
32838;SDS011;19182;41.820;12.808;2024-03-29T06:09:33;76.78;;;9.63;;
32838;SDS011;19182;41.820;12.808;2024-03-29T06:12:01;55.67;;;8.00;;
32838;SDS011;19182;41.820;12.808;2024-03-29T06:14:27;66.00;;;8.98;;
32838;SDS011;19182;41.820;12.808;2024-03-29T06:17:11;47.28;;;8.13;;
32838;SDS011;19182;41.820;12.808;2024-03-29T06:19:52;59.53;;;8.73;;
32838;SDS011;19182;41.820;12.808;2024-03-29T06:22:28;50.05;;;10.10;;
32838;SDS011;19182;41.820;12.808;2024-03-29T06:24:55;57.03;;;8.05;;
32838;SDS011;19182;41.820;12.808;2024-03-29T06:27:26;57.08;;;8.00;;
32838;SDS011;19182;41.820;12.808;2024-03-29T06:29:52;48.13;;;8.50;;
32838;SDS011;19182;41.820;12.808;2024-03-29T06:32:18;61.55;;;7.35;;
32838;SDS011;19182;41.820;12.808;2024-03-29T06:34:44;47.00;;;7.38;;
32838;SDS011;19182;41.820;12.808;2024-03-29T06:37:10;60.30;;;10.73;;
32838;SDS011;19182;41.820;12.808;2024-03-29T06:39:38;52.40;;;6.68;;
32838;SDS011;19182;41.820;12.808;2024-03-29T06:42:04;61.92;;;7.45;;
32838;SDS011;19182;41.820;12.808;2024-03-29T06:44:32;55.30;;;6.40;;
32838;SDS011;19182;41.820;12.808;2024-03-29T06:46:58;61.13;;;7.20;;
32838;SDS011;19182;41.820;12.808;2024-03-29T06:49:25;55.53;;;9.02;;
32838;SDS011;19182;41.820;12.808;2024-03-29T06:51:51;58.28;;;7.47;;
32838;SDS011;19182;41.820;12.808;2024-03-29T06:54:18;53.50;;;7.60;;
32838;SDS011;19182;41.820;12.808;2024-03-29T06:56:47;48.25;;;7.30;;
32838;SDS011;19182;41.820;12.808;2024-03-29T06:59:14;52.10;;;6.82;;
32838;SDS011;19182;41.820;12.808;2024-03-29T07:01:42;59.28;;;7.05;;
32838;SDS011;19182;41.820;12.808;2024-03-29T07:04:09;48.75;;;6.20;;
32838;SDS011;19182;41.820;12.808;2024-03-29T07:06:36;42.53;;;7.38;;
32838;SDS011;19182;41.820;12.808;2024-03-29T07:09:07;54.05;;;7.30;;
32838;SDS011;19182;41.820;12.808;2024-03-29T07:11:35;50.60;;;6.75;;
32838;SDS011;19182;41.820;12.808;2024-03-29T07:14:02;53.50;;;6.85;;
32838;SDS011;19182;41.820;12.808;2024-03-29T07:16:30;48.53;;;6.00;;
32838;SDS011;19182;41.820;12.808;2024-03-29T07:18:56;58.78;;;6.57;;
32838;SDS011;19182;41.820;12.808;2024-03-29T07:21:24;53.17;;;8.73;;
32838;SDS011;19182;41.820;12.808;2024-03-29T07:23:50;39.55;;;6.10;;
32838;SDS011;19182;41.820;12.808;2024-03-29T07:26:16;47.10;;;5.88;;
32838;SDS011;19182;41.820;12.808;2024-03-29T07:28:41;48.88;;;6.50;;
32838;SDS011;19182;41.820;12.808;2024-03-29T07:31:08;40.65;;;5.90;;
32838;SDS011;19182;41.820;12.808;2024-03-29T07:33:36;39.67;;;6.20;;
32838;SDS011;19182;41.820;12.808;2024-03-29T07:36:02;48.88;;;6.00;;
32838;SDS011;19182;41.820;12.808;2024-03-29T07:38:29;40.72;;;5.95;;
32838;SDS011;19182;41.820;12.808;2024-03-29T07:40:55;35.00;;;5.63;;
32838;SDS011;19182;41.820;12.808;2024-03-29T07:43:21;38.58;;;5.78;;
32838;SDS011;19182;41.820;12.808;2024-03-29T07:45:48;50.75;;;6.45;;
32838;SDS011;19182;41.820;12.808;2024-03-29T07:48:16;32.50;;;5.28;;
32838;SDS011;19182;41.820;12.808;2024-03-29T07:50:42;38.80;;;5.13;;
32838;SDS011;19182;41.820;12.808;2024-03-29T07:53:09;42.88;;;5.68;;
32838;SDS011;19182;41.820;12.808;2024-03-29T07:55:39;49.28;;;5.32;;
32838;SDS011;19182;41.820;12.808;2024-03-29T07:58:09;35.92;;;5.88;;
32838;SDS011;19182;41.820;12.808;2024-03-29T08:00:39;37.72;;;5.72;;
32838;SDS011;19182;41.820;12.808;2024-03-29T08:03:08;43.63;;;5.30;;
32838;SDS011;19182;41.820;12.808;2024-03-29T08:05:34;42.10;;;5.00;;
32838;SDS011;19182;41.820;12.808;2024-03-29T08:08:00;34.83;;;4.63;;
32838;SDS011;19182;41.820;12.808;2024-03-29T08:10:28;32.30;;;4.75;;
32838;SDS011;19182;41.820;12.808;2024-03-29T08:12:56;30.33;;;4.88;;
32838;SDS011;19182;41.820;12.808;2024-03-29T08:15:23;41.70;;;5.05;;
32838;SDS011;19182;41.820;12.808;2024-03-29T08:17:50;32.13;;;4.13;;
32838;SDS011;19182;41.820;12.808;2024-03-29T08:20:17;35.20;;;5.22;;
32838;SDS011;19182;41.820;12.808;2024-03-29T08:22:44;40.20;;;5.53;;
32838;SDS011;19182;41.820;12.808;2024-03-29T08:25:11;28.77;;;5.18;;
32838;SDS011;19182;41.820;12.808;2024-03-29T08:27:38;28.92;;;4.40;;
32838;SDS011;19182;41.820;12.808;2024-03-29T08:30:06;23.08;;;3.28;;
32838;SDS011;19182;41.820;12.808;2024-03-29T08:32:33;31.23;;;5.63;;
32838;SDS011;19182;41.820;12.808;2024-03-29T08:34:59;26.00;;;4.82;;
32838;SDS011;19182;41.820;12.808;2024-03-29T08:37:25;31.83;;;4.75;;
32838;SDS011;19182;41.820;12.808;2024-03-29T08:39:51;34.22;;;5.00;;
32838;SDS011;19182;41.820;12.808;2024-03-29T08:42:17;30.88;;;4.03;;
32838;SDS011;19182;41.820;12.808;2024-03-29T08:44:46;26.08;;;3.35;;
32838;SDS011;19182;41.820;12.808;2024-03-29T08:47:12;31.98;;;4.80;;
32838;SDS011;19182;41.820;12.808;2024-03-29T08:49:38;29.73;;;4.45;;
32838;SDS011;19182;41.820;12.808;2024-03-29T08:52:05;33.28;;;5.78;;
32838;SDS011;19182;41.820;12.808;2024-03-29T08:54:33;32.25;;;5.28;;
32838;SDS011;19182;41.820;12.808;2024-03-29T08:57:00;41.30;;;4.90;;
32838;SDS011;19182;41.820;12.808;2024-03-29T08:59:28;33.03;;;5.35;;
32838;SDS011;19182;41.820;12.808;2024-03-29T09:02:03;40.85;;;5.05;;
32838;SDS011;19182;41.820;12.808;2024-03-29T09:04:30;42.78;;;5.15;;
32838;SDS011;19182;41.820;12.808;2024-03-29T09:06:56;42.13;;;5.15;;
32838;SDS011;19182;41.820;12.808;2024-03-29T09:09:23;28.67;;;3.88;;
32838;SDS011;19182;41.820;12.808;2024-03-29T09:11:49;38.78;;;5.55;;
32838;SDS011;19182;41.820;12.808;2024-03-29T09:14:14;34.60;;;4.72;;
32838;SDS011;19182;41.820;12.808;2024-03-29T09:16:41;35.38;;;5.45;;
32838;SDS011;19182;41.820;12.808;2024-03-29T09:19:07;38.78;;;6.07;;
32838;SDS011;19182;41.820;12.808;2024-03-29T09:21:33;27.42;;;4.82;;
32838;SDS011;19182;41.820;12.808;2024-03-29T09:23:59;36.20;;;5.60;;
32838;SDS011;19182;41.820;12.808;2024-03-29T09:26:27;42.50;;;5.55;;
32838;SDS011;19182;41.820;12.808;2024-03-29T09:28:55;43.35;;;5.75;;
32838;SDS011;19182;41.820;12.808;2024-03-29T09:31:21;39.45;;;5.38;;
32838;SDS011;19182;41.820;12.808;2024-03-29T09:33:48;45.10;;;7.13;;
32838;SDS011;19182;41.820;12.808;2024-03-29T09:36:21;27.80;;;6.55;;
32838;SDS011;19182;41.820;12.808;2024-03-29T09:38:50;40.72;;;5.03;;
32838;SDS011;19182;41.820;12.808;2024-03-29T09:41:18;53.30;;;6.28;;
32838;SDS011;19182;41.820;12.808;2024-03-29T09:43:46;38.72;;;6.28;;
32838;SDS011;19182;41.820;12.808;2024-03-29T09:46:18;44.90;;;5.93;;
32838;SDS011;19182;41.820;12.808;2024-03-29T09:48:44;52.22;;;7.38;;
32838;SDS011;19182;41.820;12.808;2024-03-29T09:51:13;69.35;;;7.68;;
32838;SDS011;19182;41.820;12.808;2024-03-29T09:53:40;69.22;;;9.50;;
32838;SDS011;19182;41.820;12.808;2024-03-29T09:56:08;50.40;;;6.55;;
32838;SDS011;19182;41.820;12.808;2024-03-29T09:58:35;35.85;;;5.93;;
32838;SDS011;19182;41.820;12.808;2024-03-29T10:01:02;40.45;;;5.32;;
32838;SDS011;19182;41.820;12.808;2024-03-29T10:03:29;93.30;;;12.98;;
32838;SDS011;19182;41.820;12.808;2024-03-29T10:05:57;75.75;;;9.00;;
32838;SDS011;19182;41.820;12.808;2024-03-29T10:08:28;85.68;;;12.68;;
32838;SDS011;19182;41.820;12.808;2024-03-29T10:10:55;72.32;;;9.43;;
32838;SDS011;19182;41.820;12.808;2024-03-29T10:13:23;85.18;;;11.50;;
32838;SDS011;19182;41.820;12.808;2024-03-29T10:15:50;102.90;;;12.63;;
32838;SDS011;19182;41.820;12.808;2024-03-29T10:18:18;90.72;;;11.13;;
32838;SDS011;19182;41.820;12.808;2024-03-29T10:20:57;91.95;;;12.05;;
32838;SDS011;19182;41.820;12.808;2024-03-29T10:23:29;92.97;;;10.75;;
32838;SDS011;19182;41.820;12.808;2024-03-29T10:25:57;90.13;;;10.70;;
32838;SDS011;19182;41.820;12.808;2024-03-29T10:28:23;86.72;;;10.93;;
32838;SDS011;19182;41.820;12.808;2024-03-29T10:30:55;72.25;;;11.02;;
32838;SDS011;19182;41.820;12.808;2024-03-29T10:33:21;85.80;;;11.18;;
32838;SDS011;19182;41.820;12.808;2024-03-29T10:35:46;80.63;;;10.73;;
32838;SDS011;19182;41.820;12.808;2024-03-29T10:38:13;89.75;;;11.65;;
32838;SDS011;19182;41.820;12.808;2024-03-29T10:40:40;65.22;;;8.18;;
32838;SDS011;19182;41.820;12.808;2024-03-29T10:43:11;73.80;;;8.63;;
32838;SDS011;19182;41.820;12.808;2024-03-29T10:45:38;86.45;;;10.13;;
32838;SDS011;19182;41.820;12.808;2024-03-29T10:48:06;88.03;;;10.05;;
32838;SDS011;19182;41.820;12.808;2024-03-29T10:50:37;54.85;;;8.20;;
32838;SDS011;19182;41.820;12.808;2024-03-29T10:53:06;65.18;;;9.68;;
32838;SDS011;19182;41.820;12.808;2024-03-29T10:55:35;54.92;;;8.63;;
32838;SDS011;19182;41.820;12.808;2024-03-29T11:00:32;56.50;;;8.57;;
32838;SDS011;19182;41.820;12.808;2024-03-29T11:06:04;40.03;;;7.40;;
32838;SDS011;19182;41.820;12.808;2024-03-29T11:08:32;62.33;;;8.77;;
32838;SDS011;19182;41.820;12.808;2024-03-29T11:11:04;70.68;;;9.30;;
32838;SDS011;19182;41.820;12.808;2024-03-29T11:13:41;58.95;;;8.23;;
32838;SDS011;19182;41.820;12.808;2024-03-29T11:16:14;63.30;;;7.97;;
32838;SDS011;19182;41.820;12.808;2024-03-29T11:18:45;77.93;;;10.13;;
32838;SDS011;19182;41.820;12.808;2024-03-29T11:21:13;86.18;;;9.82;;
32838;SDS011;19182;41.820;12.808;2024-03-29T11:23:48;65.40;;;8.80;;
32838;SDS011;19182;41.820;12.808;2024-03-29T11:26:16;76.85;;;10.73;;
32838;SDS011;19182;41.820;12.808;2024-03-29T11:28:47;86.25;;;11.55;;
32838;SDS011;19182;41.820;12.808;2024-03-29T11:31:17;78.03;;;10.30;;
32838;SDS011;19182;41.820;12.808;2024-03-29T11:33:47;83.75;;;11.02;;
32838;SDS011;19182;41.820;12.808;2024-03-29T11:36:29;73.97;;;11.57;;
32838;SDS011;19182;41.820;12.808;2024-03-29T11:38:58;64.30;;;8.18;;
32838;SDS011;19182;41.820;12.808;2024-03-29T11:41:24;79.18;;;10.05;;
32838;SDS011;19182;41.820;12.808;2024-03-29T11:43:54;87.85;;;10.40;;
32838;SDS011;19182;41.820;12.808;2024-03-29T11:46:21;110.07;;;10.27;;
32838;SDS011;19182;41.820;12.808;2024-03-29T11:48:48;84.53;;;9.77;;
32838;SDS011;19182;41.820;12.808;2024-03-29T11:51:20;81.88;;;10.13;;
32838;SDS011;19182;41.820;12.808;2024-03-29T11:53:48;60.50;;;7.72;;
32838;SDS011;19182;41.820;12.808;2024-03-29T11:56:19;60.25;;;8.05;;
32838;SDS011;19182;41.820;12.808;2024-03-29T11:58:45;74.05;;;11.02;;
32838;SDS011;19182;41.820;12.808;2024-03-29T12:01:16;49.88;;;7.88;;
32838;SDS011;19182;41.820;12.808;2024-03-29T12:03:47;58.25;;;7.18;;
32838;SDS011;19182;41.820;12.808;2024-03-29T12:06:14;65.53;;;7.65;;
32838;SDS011;19182;41.820;12.808;2024-03-29T12:08:45;53.72;;;6.85;;
32838;SDS011;19182;41.820;12.808;2024-03-29T12:11:12;46.92;;;6.40;;
32838;SDS011;19182;41.820;12.808;2024-03-29T12:13:39;62.40;;;6.85;;
32838;SDS011;19182;41.820;12.808;2024-03-29T12:16:05;72.18;;;7.15;;
32838;SDS011;19182;41.820;12.808;2024-03-29T12:18:33;55.08;;;7.00;;
32838;SDS011;19182;41.820;12.808;2024-03-29T12:21:00;44.08;;;6.60;;
32838;SDS011;19182;41.820;12.808;2024-03-29T12:23:29;54.53;;;7.10;;
32838;SDS011;19182;41.820;12.808;2024-03-29T12:25:57;63.40;;;8.15;;
32838;SDS011;19182;41.820;12.808;2024-03-29T12:28:26;38.10;;;5.63;;
32838;SDS011;19182;41.820;12.808;2024-03-29T12:30:55;41.60;;;6.35;;
32838;SDS011;19182;41.820;12.808;2024-03-29T12:33:21;58.50;;;5.80;;
32838;SDS011;19182;41.820;12.808;2024-03-29T12:35:48;52.78;;;5.85;;
32838;SDS011;19182;41.820;12.808;2024-03-29T12:38:19;40.78;;;6.20;;
32838;SDS011;19182;41.820;12.808;2024-03-29T12:40:48;52.40;;;6.87;;
32838;SDS011;19182;41.820;12.808;2024-03-29T12:43:19;38.50;;;4.78;;
32838;SDS011;19182;41.820;12.808;2024-03-29T12:45:47;45.53;;;5.13;;
32838;SDS011;19182;41.820;12.808;2024-03-29T12:48:15;53.88;;;6.20;;
32838;SDS011;19182;41.820;12.808;2024-03-29T12:50:41;61.38;;;8.00;;
32838;SDS011;19182;41.820;12.808;2024-03-29T12:53:09;42.17;;;6.22;;
32838;SDS011;19182;41.820;12.808;2024-03-29T12:55:39;43.23;;;6.10;;
32838;SDS011;19182;41.820;12.808;2024-03-29T13:00:36;43.05;;;5.72;;
32838;SDS011;19182;41.820;12.808;2024-03-29T13:03:06;41.72;;;5.45;;
32838;SDS011;19182;41.820;12.808;2024-03-29T13:05:32;49.08;;;5.75;;
32838;SDS011;19182;41.820;12.808;2024-03-29T13:08:15;46.60;;;5.85;;
32838;SDS011;19182;41.820;12.808;2024-03-29T13:10:52;42.08;;;6.32;;
32838;SDS011;19182;41.820;12.808;2024-03-29T13:13:20;45.63;;;6.22;;
32838;SDS011;19182;41.820;12.808;2024-03-29T13:15:49;49.08;;;6.10;;
32838;SDS011;19182;41.820;12.808;2024-03-29T13:18:19;41.63;;;4.88;;
32838;SDS011;19182;41.820;12.808;2024-03-29T13:20:44;39.35;;;5.90;;
32838;SDS011;19182;41.820;12.808;2024-03-29T13:23:10;40.38;;;5.97;;
32838;SDS011;19182;41.820;12.808;2024-03-29T13:25:41;48.40;;;5.45;;
32838;SDS011;19182;41.820;12.808;2024-03-29T13:28:07;38.70;;;3.92;;
32838;SDS011;19182;41.820;12.808;2024-03-29T13:30:35;40.00;;;5.05;;
32838;SDS011;19182;41.820;12.808;2024-03-29T13:33:08;33.35;;;5.28;;
32838;SDS011;19182;41.820;12.808;2024-03-29T13:35:35;50.80;;;5.15;;
32838;SDS011;19182;41.820;12.808;2024-03-29T13:38:03;41.22;;;4.65;;
32838;SDS011;19182;41.820;12.808;2024-03-29T13:40:31;43.58;;;5.03;;
32838;SDS011;19182;41.820;12.808;2024-03-29T13:42:57;38.72;;;4.80;;
32838;SDS011;19182;41.820;12.808;2024-03-29T13:45:23;42.15;;;6.15;;
32838;SDS011;19182;41.820;12.808;2024-03-29T13:47:51;44.25;;;5.25;;
32838;SDS011;19182;41.820;12.808;2024-03-29T13:50:16;46.75;;;5.45;;
32838;SDS011;19182;41.820;12.808;2024-03-29T13:52:43;49.47;;;7.10;;
32838;SDS011;19182;41.820;12.808;2024-03-29T13:55:12;33.03;;;4.82;;
32838;SDS011;19182;41.820;12.808;2024-03-29T13:57:38;49.03;;;5.45;;
32838;SDS011;19182;41.820;12.808;2024-03-29T14:00:05;41.25;;;5.35;;
32838;SDS011;19182;41.820;12.808;2024-03-29T14:02:32;35.92;;;4.82;;
32838;SDS011;19182;41.820;12.808;2024-03-29T14:04:58;50.65;;;6.32;;
32838;SDS011;19182;41.820;12.808;2024-03-29T14:07:25;47.00;;;6.47;;
32838;SDS011;19182;41.820;12.808;2024-03-29T14:09:53;44.10;;;7.38;;
32838;SDS011;19182;41.820;12.808;2024-03-29T14:12:19;57.58;;;7.53;;
32838;SDS011;19182;41.820;12.808;2024-03-29T14:14:47;47.63;;;6.88;;
32838;SDS011;19182;41.820;12.808;2024-03-29T14:17:15;52.50;;;6.93;;
32838;SDS011;19182;41.820;12.808;2024-03-29T14:19:42;44.42;;;7.10;;
32838;SDS011;19182;41.820;12.808;2024-03-29T14:22:09;53.60;;;6.45;;
32838;SDS011;19182;41.820;12.808;2024-03-29T14:24:37;51.47;;;6.40;;
32838;SDS011;19182;41.820;12.808;2024-03-29T14:27:04;55.83;;;6.20;;